createdAt,value
2023-12-12T00:01:58.511Z,0.90
2023-12-12T00:04:25.148Z,1.40
2023-12-12T00:06:51.668Z,1.20
2023-12-12T00:09:18.168Z,1.30
2023-12-12T00:11:44.625Z,1.20
2023-12-12T00:14:11.458Z,0.90
2023-12-12T00:16:37.971Z,1.10
2023-12-12T00:19:04.692Z,0.90
2023-12-12T00:21:31.220Z,1.10
2023-12-12T00:23:57.735Z,1.20
2023-12-12T00:26:24.281Z,1.30
2023-12-12T00:28:50.879Z,1.60
2023-12-12T00:31:17.452Z,1.00
2023-12-12T00:33:44.098Z,1.10
2023-12-12T00:36:10.662Z,1.20
2023-12-12T00:38:37.537Z,1.50
2023-12-12T00:41:05.421Z,1.60
2023-12-12T00:43:32.213Z,1.20
2023-12-12T00:45:58.771Z,1.00
2023-12-12T00:48:25.498Z,1.10
2023-12-12T00:50:52.210Z,0.70
2023-12-12T00:53:19.023Z,1.20
2023-12-12T00:55:45.535Z,1.00
2023-12-12T00:58:12.048Z,1.50
2023-12-12T01:00:38.721Z,1.20
2023-12-12T01:03:05.305Z,1.20
2023-12-12T01:05:31.858Z,1.30
2023-12-12T01:07:58.401Z,0.90
2023-12-12T01:10:25.028Z,1.30
2023-12-12T01:12:51.900Z,0.90
2023-12-12T01:15:18.438Z,1.20
2023-12-12T01:17:45.121Z,1.00
2023-12-12T01:20:11.901Z,0.80
2023-12-12T01:22:38.511Z,1.00
2023-12-12T01:25:06.849Z,1.30
2023-12-12T01:27:33.493Z,1.00
2023-12-12T01:30:00.128Z,1.10
2023-12-12T01:32:26.849Z,1.60
2023-12-12T01:34:53.581Z,1.40
2023-12-12T01:37:20.191Z,0.90
2023-12-12T01:39:46.706Z,1.10
2023-12-12T01:42:13.228Z,1.10
2023-12-12T01:44:39.703Z,1.30
2023-12-12T01:47:06.948Z,1.20
2023-12-12T01:52:00.493Z,1.10
2023-12-12T01:54:27.474Z,1.00
2023-12-12T01:56:55.013Z,1.50
2023-12-12T01:59:23.520Z,1.10
2023-12-12T02:01:50.461Z,1.70
2023-12-12T02:04:18.574Z,1.20
2023-12-12T02:06:48.352Z,1.90
2023-12-12T02:09:16.582Z,1.10
2023-12-12T02:11:43.701Z,1.00
2023-12-12T02:14:11.335Z,1.10
2023-12-12T02:16:38.285Z,1.90
2023-12-12T02:19:05.105Z,1.80
2023-12-12T02:21:31.711Z,1.10
2023-12-12T02:23:58.233Z,1.40
2023-12-12T02:26:24.928Z,1.20
2023-12-12T02:28:51.765Z,1.20
2023-12-12T02:31:18.550Z,1.40
2023-12-12T02:33:45.186Z,1.10
2023-12-12T02:36:11.813Z,1.10
2023-12-12T02:38:38.374Z,1.00
2023-12-12T02:41:04.911Z,1.60
2023-12-12T02:43:31.635Z,1.10
2023-12-12T02:45:58.241Z,0.80
2023-12-12T02:48:25.047Z,1.50
2023-12-12T02:50:51.736Z,1.00
2023-12-12T02:53:18.246Z,1.00
2023-12-12T02:55:45.195Z,1.50
2023-12-12T02:58:11.964Z,1.00
2023-12-12T03:00:38.641Z,1.20
2023-12-12T03:03:05.210Z,1.60
2023-12-12T03:05:32.176Z,1.40
2023-12-12T03:07:58.695Z,2.00
2023-12-12T03:10:25.326Z,0.80
2023-12-12T03:12:52.005Z,1.10
2023-12-12T03:15:18.924Z,1.60
2023-12-12T03:17:45.429Z,1.40
2023-12-12T03:20:12.477Z,1.60
2023-12-12T03:22:38.949Z,1.50
2023-12-12T03:25:06.658Z,1.20
2023-12-12T03:27:33.344Z,1.40
2023-12-12T03:30:00.162Z,2.00
2023-12-12T03:32:26.652Z,1.60
2023-12-12T03:34:53.841Z,1.50
2023-12-12T03:37:20.402Z,1.00
2023-12-12T03:39:46.905Z,1.10
2023-12-12T03:42:13.427Z,1.30
2023-12-12T03:44:39.970Z,1.20
2023-12-12T03:47:06.513Z,1.30
2023-12-12T03:49:33.025Z,1.10
2023-12-12T03:51:59.729Z,1.10
2023-12-12T03:54:26.946Z,0.90
2023-12-12T03:56:53.481Z,1.00
2023-12-12T03:59:19.932Z,1.60
2023-12-12T04:01:50.040Z,1.30
2023-12-12T04:04:19.761Z,1.50
2023-12-12T04:06:47.712Z,1.20
2023-12-12T04:09:14.240Z,1.40
2023-12-12T04:11:40.714Z,1.30
2023-12-12T04:14:07.221Z,1.30
2023-12-12T04:16:34.033Z,1.20
2023-12-12T04:19:00.791Z,1.20
2023-12-12T04:21:27.519Z,1.10
2023-12-12T04:23:53.976Z,1.20
2023-12-12T04:26:20.484Z,1.80
2023-12-12T04:28:46.996Z,0.90
2023-12-12T04:31:18.120Z,1.00
2023-12-12T04:33:44.937Z,1.10
2023-12-12T04:36:15.747Z,1.40
2023-12-12T04:38:43.306Z,1.10
2023-12-12T04:43:36.946Z,1.20
2023-12-12T04:46:04.276Z,1.30
2023-12-12T04:48:31.247Z,1.40
2023-12-12T04:50:58.106Z,0.80
2023-12-12T04:53:24.850Z,0.80
2023-12-12T04:55:51.326Z,1.50
2023-12-12T04:58:18.061Z,2.50
2023-12-12T05:00:44.813Z,3.50
2023-12-12T05:03:11.393Z,3.90
2023-12-12T05:05:37.927Z,3.40
2023-12-12T05:08:05.167Z,2.00
2023-12-12T05:10:31.826Z,2.20
2023-12-12T05:12:58.518Z,2.60
2023-12-12T05:15:25.223Z,1.80
2023-12-12T05:17:51.880Z,2.50
2023-12-12T05:20:18.797Z,6.20
2023-12-12T05:22:45.515Z,5.50
2023-12-12T05:25:12.621Z,5.10
2023-12-12T05:27:39.181Z,3.80
2023-12-12T05:30:06.674Z,2.60
2023-12-12T05:32:33.292Z,2.80
2023-12-12T05:34:59.922Z,1.10
2023-12-12T05:37:26.453Z,1.40
2023-12-12T05:39:53.195Z,2.10
2023-12-12T05:42:20.081Z,2.50
2023-12-12T05:44:46.565Z,1.60
2023-12-12T05:47:13.160Z,1.50
2023-12-12T05:49:39.695Z,1.70
2023-12-12T05:52:06.991Z,1.90
2023-12-12T05:54:33.625Z,1.10
2023-12-12T05:57:00.579Z,1.40
2023-12-12T05:59:27.165Z,1.50
2023-12-12T06:01:53.634Z,1.50
2023-12-12T06:04:20.341Z,2.40
2023-12-12T06:06:46.910Z,1.70
2023-12-12T06:09:14.367Z,1.70
2023-12-12T06:11:43.333Z,1.90
2023-12-12T06:14:10.356Z,1.30
2023-12-12T06:16:38.078Z,1.80
2023-12-12T06:19:06.587Z,1.20
2023-12-12T06:21:34.436Z,1.60
2023-12-12T06:24:03.531Z,1.10
2023-12-12T06:26:31.509Z,1.60
2023-12-12T06:28:58.129Z,1.10
2023-12-12T06:31:25.052Z,1.40
2023-12-12T06:33:53.313Z,1.00
2023-12-12T06:36:20.522Z,0.90
2023-12-12T06:38:47.428Z,1.30
2023-12-12T06:41:14.172Z,1.00
2023-12-12T06:43:41.117Z,1.00
2023-12-12T06:46:09.382Z,0.90
2023-12-12T06:48:38.286Z,1.30
2023-12-12T06:51:05.971Z,0.90
2023-12-12T06:53:32.421Z,1.00
2023-12-12T06:55:59.133Z,0.80
2023-12-12T06:58:25.875Z,0.90
2023-12-12T07:00:53.076Z,1.20
2023-12-12T07:03:20.157Z,1.20
2023-12-12T07:05:46.954Z,0.80
2023-12-12T07:08:13.586Z,1.30
2023-12-12T07:10:40.190Z,1.00
2023-12-12T07:13:07.129Z,0.80
2023-12-12T07:15:34.632Z,1.10
2023-12-12T07:18:01.274Z,0.60
2023-12-12T07:20:27.888Z,0.80
2023-12-12T07:22:54.564Z,0.70
2023-12-12T07:25:21.808Z,0.70
2023-12-12T07:27:48.530Z,1.30
2023-12-12T07:30:15.175Z,0.60
2023-12-12T07:32:41.881Z,1.20
2023-12-12T07:35:09.422Z,0.50
2023-12-12T07:37:36.359Z,0.80
2023-12-12T07:40:05.423Z,0.90
2023-12-12T07:42:32.072Z,0.70
2023-12-12T07:44:59.170Z,0.90
2023-12-12T07:47:34.093Z,1.00
2023-12-12T07:50:09.885Z,0.70
2023-12-12T07:52:37.333Z,1.30
2023-12-12T07:57:30.761Z,1.30
2023-12-12T07:59:57.467Z,0.90
2023-12-12T08:02:24.298Z,1.00
2023-12-12T08:04:51.178Z,0.80
2023-12-12T08:07:17.899Z,0.80
2023-12-12T08:09:44.529Z,0.90
2023-12-12T08:12:11.003Z,0.60
2023-12-12T08:14:39.975Z,1.20
2023-12-12T08:17:08.612Z,1.50
2023-12-12T08:19:35.305Z,1.00
2023-12-12T08:22:03.189Z,0.70
2023-12-12T08:24:29.741Z,0.80
2023-12-12T08:26:56.491Z,0.70
2023-12-12T08:29:23.116Z,0.60
2023-12-12T08:31:49.694Z,0.80
2023-12-12T08:34:16.428Z,1.00
2023-12-12T08:36:43.126Z,1.40
2023-12-12T08:39:09.692Z,1.30
2023-12-12T08:41:39.052Z,1.00
2023-12-12T08:44:05.590Z,1.40
2023-12-12T08:46:32.152Z,1.70
2023-12-12T08:48:59.700Z,1.40
2023-12-12T08:51:31.604Z,1.60
2023-12-12T08:54:02.398Z,0.70
2023-12-12T08:56:29.067Z,0.70
2023-12-12T08:58:56.203Z,1.20
2023-12-12T09:01:23.788Z,0.90
2023-12-12T09:03:50.615Z,0.90
2023-12-12T09:06:17.394Z,0.90
2023-12-12T09:08:44.432Z,1.50
2023-12-12T09:11:14.433Z,0.90
2023-12-12T09:13:43.796Z,0.80
2023-12-12T09:16:10.635Z,0.90
2023-12-12T09:18:37.933Z,0.90
2023-12-12T09:21:05.609Z,0.70
2023-12-12T09:23:32.262Z,1.00
2023-12-12T09:25:58.751Z,0.80
2023-12-12T09:28:25.743Z,1.10
2023-12-12T09:30:52.279Z,1.20
2023-12-12T09:33:18.979Z,1.00
2023-12-12T09:35:45.733Z,0.80
2023-12-12T09:38:12.493Z,1.30
2023-12-12T09:40:40.688Z,1.00
2023-12-12T09:43:12.426Z,1.10
2023-12-12T09:45:45.608Z,0.90
2023-12-12T09:50:40.386Z,1.00
2023-12-12T09:53:06.955Z,0.90
2023-12-12T09:55:33.698Z,0.80
2023-12-12T09:58:00.429Z,0.90
2023-12-12T10:00:26.934Z,0.80
2023-12-12T10:02:58.445Z,0.60
2023-12-12T10:05:27.733Z,0.40
2023-12-12T10:08:00.710Z,0.90
2023-12-12T10:10:32.644Z,0.60
2023-12-12T10:12:59.275Z,0.80
2023-12-12T10:15:27.946Z,0.70
2023-12-12T10:17:59.303Z,0.90
2023-12-12T10:20:32.888Z,0.70
2023-12-12T10:23:01.902Z,0.90
2023-12-12T10:25:30.174Z,0.30
2023-12-12T10:27:58.680Z,0.80
2023-12-12T10:30:25.749Z,0.70
2023-12-12T10:32:53.771Z,0.80
2023-12-12T10:35:22.156Z,0.60
2023-12-12T10:37:49.754Z,1.00
2023-12-12T10:40:23.551Z,1.10
2023-12-12T10:42:51.324Z,0.80
2023-12-12T10:47:50.904Z,0.70
2023-12-12T10:50:19.082Z,0.90
2023-12-12T10:52:47.793Z,0.60
2023-12-12T10:55:16.359Z,1.10
2023-12-12T10:57:45.743Z,1.20
2023-12-12T11:00:17.619Z,0.90
2023-12-12T11:02:46.706Z,0.80
2023-12-12T11:05:15.074Z,0.70
2023-12-12T11:07:43.824Z,1.00
2023-12-12T11:10:13.627Z,0.70
2023-12-12T11:12:45.034Z,0.70
2023-12-12T11:15:14.271Z,1.00
2023-12-12T11:17:41.243Z,0.70
2023-12-12T11:20:13.726Z,1.10
2023-12-12T11:22:46.340Z,0.70
2023-12-12T11:25:20.891Z,0.80
2023-12-12T11:27:55.199Z,0.90
2023-12-12T11:30:33.150Z,0.90
2023-12-12T11:33:00.000Z,0.50
2023-12-12T11:35:32.718Z,1.40
2023-12-12T11:38:03.645Z,1.00
2023-12-12T11:40:31.806Z,1.20
2023-12-12T11:43:23.370Z,0.80
2023-12-12T11:45:50.931Z,1.00
2023-12-12T11:48:18.370Z,0.70
2023-12-12T11:50:47.020Z,1.20
2023-12-12T11:53:39.667Z,0.90
2023-12-12T11:56:06.792Z,1.20
2023-12-12T11:58:33.390Z,1.60
2023-12-12T12:01:00.056Z,1.30
2023-12-12T12:03:26.945Z,0.90
2023-12-12T12:05:53.946Z,0.80
2023-12-12T12:08:22.145Z,0.90
2023-12-12T12:10:59.490Z,1.30
2023-12-12T12:13:41.140Z,1.00
2023-12-12T12:16:11.917Z,1.40
2023-12-12T12:18:39.252Z,1.00
2023-12-12T12:21:09.179Z,1.20
2023-12-12T12:23:40.374Z,1.40
2023-12-12T12:26:07.476Z,1.00
2023-12-12T12:28:34.908Z,0.90
2023-12-12T12:31:03.116Z,1.30
2023-12-12T12:33:38.726Z,0.80
2023-12-12T12:36:06.844Z,1.20
2023-12-12T12:38:33.896Z,1.50
2023-12-12T12:41:00.907Z,1.80
2023-12-12T12:43:27.760Z,1.60
2023-12-12T12:45:55.300Z,1.70
2023-12-12T12:48:23.477Z,1.90
2023-12-12T12:50:51.165Z,2.10
2023-12-12T12:53:18.714Z,2.00
2023-12-12T12:55:46.011Z,3.10
2023-12-12T12:58:14.080Z,2.40
2023-12-12T13:00:45.371Z,2.60
2023-12-12T13:03:13.617Z,2.20
2023-12-12T13:05:40.366Z,1.50
2023-12-12T13:08:06.909Z,1.80
2023-12-12T13:10:43.242Z,1.60
2023-12-12T13:13:14.903Z,1.70
2023-12-12T13:15:41.779Z,1.30
2023-12-12T13:18:08.359Z,1.70
2023-12-12T13:20:34.951Z,1.60
2023-12-12T13:23:01.526Z,1.20
2023-12-12T13:25:28.196Z,1.40
2023-12-12T13:27:54.714Z,1.10
2023-12-12T13:30:22.012Z,1.50
2023-12-12T13:32:48.874Z,1.40
2023-12-12T13:35:27.082Z,0.90
2023-12-12T13:38:02.225Z,0.80
2023-12-12T13:40:29.142Z,0.90
2023-12-12T13:42:55.769Z,0.80
2023-12-12T13:45:22.225Z,1.50
2023-12-12T13:47:48.942Z,1.20
2023-12-12T13:50:15.732Z,1.00
2023-12-12T13:52:42.825Z,1.10
2023-12-12T13:55:09.542Z,1.30
2023-12-12T13:57:36.178Z,0.70
2023-12-12T14:00:03.581Z,0.90
2023-12-12T14:02:33.581Z,1.00
2023-12-12T14:05:03.320Z,0.90
2023-12-12T14:07:30.635Z,1.00
2023-12-12T14:09:57.341Z,0.60
2023-12-12T14:12:23.861Z,0.80
2023-12-12T14:14:50.405Z,0.90
2023-12-12T14:17:17.031Z,0.90
2023-12-12T14:19:43.928Z,0.90
2023-12-12T14:22:13.557Z,0.90
2023-12-12T14:24:41.649Z,1.00
2023-12-12T14:27:08.479Z,0.70
2023-12-12T14:29:35.588Z,0.80
2023-12-12T14:32:02.712Z,1.00
2023-12-12T14:34:29.512Z,1.00
2023-12-12T14:36:56.202Z,0.70
2023-12-12T14:39:23.440Z,0.70
2023-12-12T14:41:50.089Z,1.00
2023-12-12T14:44:16.619Z,1.40
2023-12-12T14:46:43.137Z,1.10
2023-12-12T14:49:09.908Z,1.40
2023-12-12T14:51:36.462Z,1.50
2023-12-12T14:54:05.148Z,1.70
2023-12-12T14:56:33.604Z,1.20
2023-12-12T14:59:00.505Z,0.90
2023-12-12T15:01:27.928Z,0.90
2023-12-12T15:03:54.795Z,1.50
2023-12-12T15:06:21.764Z,1.00
2023-12-12T15:08:48.621Z,1.50
2023-12-12T15:11:15.140Z,1.70
2023-12-12T15:13:41.814Z,1.20
2023-12-12T15:16:12.530Z,2.70
2023-12-12T15:18:40.476Z,1.20
2023-12-12T15:21:12.406Z,1.90
2023-12-12T15:23:40.846Z,1.80
2023-12-12T15:26:07.426Z,2.30
2023-12-12T15:28:34.639Z,2.20
2023-12-12T15:31:02.625Z,2.20
2023-12-12T15:33:32.189Z,1.90
2023-12-12T15:35:59.869Z,2.00
2023-12-12T15:38:27.332Z,1.40
2023-12-12T15:40:54.063Z,1.50
2023-12-12T15:43:20.863Z,0.80
2023-12-12T15:45:47.615Z,1.00
2023-12-12T15:48:14.406Z,0.70
2023-12-12T15:50:41.074Z,1.20
2023-12-12T15:53:08.590Z,1.00
2023-12-12T15:55:35.213Z,1.00
2023-12-12T15:58:01.880Z,0.70
2023-12-12T16:00:29.787Z,1.30
2023-12-12T16:02:56.534Z,1.90
2023-12-12T16:05:23.743Z,1.30
2023-12-12T16:10:17.580Z,1.20
2023-12-12T16:12:44.221Z,0.90
2023-12-12T16:15:11.842Z,1.40
2023-12-12T16:17:39.692Z,1.60
2023-12-12T16:20:08.479Z,1.30
2023-12-12T16:22:37.287Z,1.20
2023-12-12T16:25:06.806Z,1.00
2023-12-12T16:27:34.772Z,1.70
2023-12-12T16:30:01.500Z,1.50
2023-12-12T16:32:27.991Z,1.20
2023-12-12T16:34:54.527Z,1.70
2023-12-12T16:37:21.132Z,1.30
2023-12-12T16:39:47.672Z,1.30
2023-12-12T16:42:17.364Z,1.80
2023-12-12T16:44:44.244Z,1.60
2023-12-12T16:47:11.548Z,1.10
2023-12-12T16:49:38.325Z,1.20
2023-12-12T16:52:05.541Z,1.30
2023-12-12T16:54:32.299Z,1.60
2023-12-12T16:57:01.907Z,1.30
2023-12-12T16:59:29.510Z,1.40
2023-12-12T17:01:58.120Z,1.60
2023-12-12T17:04:30.535Z,1.40
2023-12-12T17:06:57.408Z,1.50
2023-12-12T17:09:24.586Z,1.90
2023-12-12T17:14:17.574Z,1.40
2023-12-12T17:16:45.036Z,1.40
2023-12-12T17:19:12.573Z,1.60
2023-12-12T17:24:06.808Z,1.20
2023-12-12T17:26:33.357Z,1.00
2023-12-12T17:28:59.964Z,0.70
2023-12-12T17:31:26.737Z,0.70
2023-12-12T17:33:54.488Z,1.10
2023-12-12T17:36:21.206Z,1.00
2023-12-12T17:38:47.727Z,1.20
2023-12-12T17:41:16.664Z,1.00
2023-12-12T17:43:44.244Z,1.20
2023-12-12T17:46:11.024Z,2.20
2023-12-12T17:48:38.567Z,1.10
2023-12-12T17:51:05.995Z,1.20
2023-12-12T17:56:02.639Z,1.40
2023-12-12T17:58:29.622Z,1.90
2023-12-12T18:00:56.593Z,1.20
2023-12-12T18:03:23.840Z,2.10
2023-12-12T18:05:52.643Z,2.10
2023-12-12T18:08:19.791Z,1.10
2023-12-12T18:10:46.469Z,1.10
2023-12-12T18:13:13.639Z,1.50
2023-12-12T18:15:40.266Z,0.90
2023-12-12T18:18:10.998Z,1.50
2023-12-12T18:20:38.694Z,1.40
2023-12-12T18:23:06.327Z,0.90
2023-12-12T18:25:33.728Z,1.70
2023-12-12T18:28:03.063Z,1.60
2023-12-12T18:30:30.864Z,1.70
2023-12-12T18:32:59.929Z,2.40
2023-12-12T18:35:27.469Z,1.80
2023-12-12T18:40:23.304Z,1.90
2023-12-12T18:42:49.922Z,0.80
2023-12-12T18:45:17.194Z,1.90
2023-12-12T18:47:44.418Z,1.30
2023-12-12T18:52:38.969Z,1.80
2023-12-12T18:55:06.730Z,2.10
2023-12-12T18:57:34.370Z,1.60
2023-12-12T19:00:01.780Z,1.90
2023-12-12T19:02:28.354Z,1.60
2023-12-12T19:04:55.054Z,2.10
2023-12-12T19:07:21.853Z,1.30
2023-12-12T19:09:49.021Z,1.90
2023-12-12T19:12:15.598Z,1.80
2023-12-12T19:14:44.462Z,1.50
2023-12-12T19:17:11.037Z,2.10
2023-12-12T19:19:41.139Z,2.10
2023-12-12T19:22:08.359Z,2.50
2023-12-12T19:24:35.686Z,1.20
2023-12-12T19:27:02.598Z,2.10
2023-12-12T19:29:30.840Z,1.90
2023-12-12T19:31:57.573Z,1.80
2023-12-12T19:34:24.470Z,1.80
2023-12-12T19:36:51.187Z,2.50
2023-12-12T19:39:17.815Z,2.00
2023-12-12T19:41:46.408Z,2.00
2023-12-12T19:44:13.246Z,2.20
2023-12-12T19:46:47.629Z,2.10
2023-12-12T19:49:15.489Z,1.80
2023-12-12T19:51:51.917Z,2.40
2023-12-12T19:54:18.674Z,2.20
2023-12-12T19:56:45.527Z,1.70
2023-12-12T19:59:12.873Z,1.70
2023-12-12T20:01:39.488Z,1.40
2023-12-12T20:04:06.388Z,1.90
2023-12-12T20:06:32.971Z,1.60
2023-12-12T20:08:59.469Z,1.80
2023-12-12T20:11:26.905Z,1.70
2023-12-12T20:13:53.729Z,1.00
2023-12-12T20:16:24.299Z,1.60
2023-12-12T20:18:52.156Z,1.40
2023-12-12T20:21:22.105Z,1.10
2023-12-12T20:23:52.567Z,0.80
2023-12-12T20:26:19.477Z,1.20
2023-12-12T20:28:49.176Z,1.10
2023-12-12T20:31:16.626Z,1.20
2023-12-12T20:36:10.783Z,1.30
2023-12-12T20:38:38.506Z,1.30
2023-12-12T20:41:07.765Z,1.70
2023-12-12T20:43:34.874Z,1.10
2023-12-12T20:46:01.534Z,1.20
2023-12-12T20:48:28.165Z,1.40
2023-12-12T20:50:55.498Z,0.90
2023-12-12T20:53:22.336Z,1.20
2023-12-12T20:55:49.017Z,1.50
2023-12-12T20:58:15.787Z,1.50
2023-12-12T21:00:42.388Z,1.60
2023-12-12T21:03:10.494Z,1.20
2023-12-12T21:05:37.387Z,1.90
2023-12-12T21:08:04.113Z,1.60
2023-12-12T21:10:30.728Z,1.00
2023-12-12T21:12:57.343Z,1.40
2023-12-12T21:15:26.058Z,0.80
2023-12-12T21:17:53.083Z,1.50
2023-12-12T21:20:19.940Z,1.10
2023-12-12T21:22:47.696Z,1.70
2023-12-12T21:25:14.358Z,1.10
2023-12-12T21:27:40.886Z,1.10
2023-12-12T21:30:08.489Z,0.60
2023-12-12T21:32:35.423Z,0.90
2023-12-12T21:35:03.084Z,0.60
2023-12-12T21:37:31.166Z,0.60
2023-12-12T21:40:02.582Z,0.70
2023-12-12T21:42:29.893Z,0.60
2023-12-12T21:44:58.292Z,0.80
2023-12-12T21:47:25.982Z,0.70
2023-12-12T21:49:52.895Z,0.40
2023-12-12T21:52:20.519Z,0.30
2023-12-12T21:54:47.686Z,0.50
2023-12-12T21:57:14.727Z,0.40
2023-12-12T21:59:41.300Z,0.30
2023-12-12T22:02:08.074Z,0.40
2023-12-12T22:04:34.836Z,0.20
2023-12-12T22:07:01.409Z,0.40
2023-12-12T22:09:27.945Z,0.30
2023-12-12T22:11:55.484Z,0.20
2023-12-12T22:14:22.208Z,0.30
2023-12-12T22:16:48.720Z,0.40
2023-12-12T22:19:15.359Z,0.40
2023-12-12T22:21:42.122Z,0.40
2023-12-12T22:24:08.728Z,0.40
2023-12-12T22:26:35.361Z,0.30
2023-12-12T22:29:04.080Z,0.20
2023-12-12T22:31:30.901Z,0.20
2023-12-12T22:33:57.579Z,0.30
2023-12-12T22:36:24.194Z,0.10
2023-12-12T22:38:51.263Z,0.20
2023-12-12T22:41:21.781Z,0.20
2023-12-12T22:43:49.002Z,0.30
2023-12-12T22:48:45.748Z,0.20
2023-12-12T22:51:16.757Z,0.10
2023-12-12T22:53:43.469Z,0.30
2023-12-12T22:56:13.428Z,0.30
2023-12-12T22:58:43.689Z,0.20
2023-12-12T23:01:11.249Z,0.40
2023-12-12T23:03:37.965Z,0.40
2023-12-12T23:06:07.762Z,0.20
2023-12-12T23:08:35.139Z,0.30
2023-12-12T23:11:02.031Z,0.10
2023-12-12T23:13:28.550Z,0.10
2023-12-12T23:15:55.331Z,0.20
2023-12-12T23:18:21.998Z,0.20
2023-12-12T23:20:49.225Z,0.10
2023-12-12T23:23:15.739Z,0.30
2023-12-12T23:25:42.866Z,0.00
2023-12-12T23:28:10.987Z,0.10
2023-12-12T23:30:38.311Z,0.20
2023-12-12T23:35:31.919Z,0.10
2023-12-12T23:37:58.611Z,0.10
2023-12-12T23:40:25.219Z,0.20
2023-12-12T23:42:51.770Z,0.10
2023-12-12T23:45:22.375Z,0.40
2023-12-12T23:47:55.245Z,0.20
2023-12-12T23:50:21.830Z,0.20
2023-12-12T23:52:48.333Z,0.30
2023-12-12T23:55:16.324Z,0.10
2023-12-12T23:57:44.039Z,0.20
